Time;durP1;ratioP1;P1;durP2;ratioP2;P2;SDS_P1;SDS_P2;PMS_P1;PMS_P2;Temp;Humidity;BMP_temperature;BMP_pressure;BME280_temperature;BME280_humidity;BME280_pressure;Samples;Min_cycle;Max_cycle;Signal;HPM_P1;HPM_P2
2023/03/19 00:00:31;;;;;;;1.25;0.93;;;18.70;53.60;;;;;;6296962;28;20029;-71
2023/03/19 00:03:32;;;;;;;1.63;1.10;;;18.70;53.60;;;;;;6278664;28;20070;-71
2023/03/19 00:06:33;;;;;;;1.48;1.05;;;18.70;53.60;;;;;;6296991;28;20112;-71
2023/03/19 00:09:34;;;;;;;1.50;1.10;;;18.70;53.60;;;;;;6278658;28;20477;-71
2023/03/19 00:12:35;;;;;;;1.00;0.85;;;18.70;53.60;;;;;;6272923;28;20123;-71
2023/03/19 00:15:36;;;;;;;1.77;0.90;;;18.70;53.60;;;;;;6292034;28;20100;-70
2023/03/19 00:18:36;;;;;;;1.13;0.80;;;18.70;53.60;;;;;;6296836;28;20025;-71
2023/03/19 00:21:37;;;;;;;1.40;0.90;;;18.70;53.60;;;;;;6297163;28;20504;-75
2023/03/19 00:24:38;;;;;;;1.55;1.15;;;18.70;53.60;;;;;;6278799;28;20562;-75
2023/03/19 00:27:38;;;;;;;1.58;1.00;;;18.70;53.60;;;;;;6290982;28;20076;-75
2023/03/19 00:30:39;;;;;;;1.50;0.95;;;18.70;53.60;;;;;;6296617;28;20691;-75
2023/03/19 00:33:41;;;;;;;1.55;1.10;;;18.70;53.60;;;;;;6295807;28;20024;-74
2023/03/19 00:36:42;;;;;;;1.58;1.05;;;18.70;53.60;;;;;;6278314;28;20059;-75
2023/03/19 00:39:43;;;;;;;1.35;1.00;;;18.70;53.60;;;;;;6296149;28;20024;-75
2023/03/19 00:42:44;;;;;;;1.13;0.80;;;18.70;53.60;;;;;;6296066;28;20039;-75
2023/03/19 00:45:44;;;;;;;1.45;0.95;;;18.70;53.60;;;;;;6295680;28;20041;-75
2023/03/19 00:48:45;;;;;;;1.17;0.93;;;18.70;53.60;;;;;;6296371;28;20550;-75
2023/03/19 00:51:46;;;;;;;1.10;0.90;;;18.70;53.60;;;;;;6277628;28;20361;-75
2023/03/19 00:54:47;;;;;;;1.30;1.00;;;18.70;53.60;;;;;;6296175;28;20426;-75
2023/03/19 00:57:47;;;;;;;1.38;1.13;;;18.70;53.60;;;;;;6295850;28;20017;-75
2023/03/19 01:00:52;;;;;;;1.65;1.20;;;18.70;53.60;;;;;;6277726;28;20029;-75
2023/03/19 01:03:53;;;;;;;1.27;1.05;;;18.70;53.60;;;;;;6277405;28;20025;-75
2023/03/19 01:06:54;;;;;;;1.20;0.90;;;18.70;53.60;;;;;;6295786;28;20035;-74
2023/03/19 01:09:54;;;;;;;2.10;1.30;;;18.70;53.60;;;;;;6277520;28;20686;-75
2023/03/19 01:12:56;;;;;;;1.23;1.00;;;18.70;53.60;;;;;;6295490;28;20028;-74
2023/03/19 01:15:56;;;;;;;1.70;1.02;;;18.70;53.60;;;;;;6295370;28;20033;-73
2023/03/19 01:18:57;;;;;;;1.95;1.20;;;18.70;53.60;;;;;;6277459;28;20073;-74
2023/03/19 01:21:58;;;;;;;1.20;1.00;;;18.70;53.60;;;;;;6295261;28;20031;-74
2023/03/19 01:24:58;;;;;;;1.60;1.00;;;18.70;53.60;;;;;;6295191;28;20778;-74
2023/03/19 01:27:59;;;;;;;1.33;1.13;;;18.70;53.60;;;;;;6295216;28;20497;-74
2023/03/19 01:31:04;;;;;;;2.25;1.42;;;18.70;53.60;;;;;;6294758;28;20485;-74
2023/03/19 01:34:06;;;;;;;1.48;1.05;;;18.70;53.60;;;;;;6290844;28;20017;-74
2023/03/19 01:37:08;;;;;;;1.77;1.10;;;18.70;53.60;;;;;;6276877;28;20060;-74
2023/03/19 01:40:12;;;;;;;1.73;1.10;;;18.70;53.60;;;;;;6276660;28;20427;-74
2023/03/19 01:43:19;;;;;;;1.90;1.40;;;18.70;53.60;;;;;;6294554;28;20039;-73
2023/03/19 01:46:26;;;;;;;1.42;1.10;;;18.70;53.60;;;;;;6294763;28;20674;-74
2023/03/19 01:49:29;;;;;;;1.40;1.10;;;18.70;53.70;;;;;;6268386;28;20026;-74
2023/03/19 01:52:33;;;;;;;2.17;1.10;;;18.70;53.70;;;;;;6251572;28;20034;-74
2023/03/19 01:55:34;;;;;;;1.15;0.95;;;18.70;53.60;;;;;;6251681;28;20544;-74
2023/03/19 01:58:35;;;;;;;1.92;1.23;;;18.70;53.60;;;;;;6265892;28;20519;-73
2023/03/19 02:01:42;;;;;;;1.38;1.08;;;18.70;53.60;;;;;;6276596;28;20024;-74
2023/03/19 02:04:47;;;;;;;1.85;1.40;;;18.70;53.70;;;;;;6294234;28;20052;-74
2023/03/19 02:07:48;;;;;;;1.85;1.23;;;18.70;53.70;;;;;;6276277;28;20021;-74
2023/03/19 02:10:50;;;;;;;1.80;1.10;;;18.70;53.60;;;;;;6294132;28;20060;-74
2023/03/19 02:13:51;;;;;;;2.30;1.40;;;18.70;53.70;;;;;;6276169;28;20020;-74
2023/03/19 02:16:53;;;;;;;1.55;1.25;;;18.70;53.60;;;;;;6276298;28;20032;-74
2023/03/19 02:19:53;;;;;;;1.70;1.30;;;18.70;53.60;;;;;;6294521;28;20541;-73
2023/03/19 02:23:04;;;;;;;1.23;1.08;;;18.70;53.70;;;;;;6293412;28;20065;-73
2023/03/19 02:26:08;;;;;;;1.20;0.98;;;18.70;53.70;;;;;;6302942;28;20099;-74
2023/03/19 02:29:12;;;;;;;1.80;1.23;;;18.70;53.70;;;;;;6303896;28;20027;-74
2023/03/19 02:32:12;;;;;;;2.85;1.50;;;18.70;53.70;;;;;;6275929;28;20028;-74
2023/03/19 02:35:13;;;;;;;1.80;1.20;;;18.70;53.70;;;;;;6267272;28;20029;-73
2023/03/19 02:38:14;;;;;;;1.77;1.33;;;18.70;53.70;;;;;;6251276;28;20096;-74
2023/03/19 02:41:15;;;;;;;2.17;1.30;;;18.70;53.70;;;;;;6268918;28;20086;-74
2023/03/19 02:44:18;;;;;;;1.65;1.15;;;18.70;53.70;;;;;;6262079;28;20040;-74
2023/03/19 02:47:19;;;;;;;1.75;1.20;;;18.70;53.70;;;;;;6294390;28;20027;-74
2023/03/19 02:50:20;;;;;;;1.48;1.15;;;18.70;53.70;;;;;;6293814;28;20401;-74
2023/03/19 02:53:20;;;;;;;1.65;1.30;;;18.70;53.70;;;;;;6293479;28;20396;-74
2023/03/19 02:56:21;;;;;;;1.50;1.23;;;18.70;53.70;;;;;;6275655;28;20025;-74
2023/03/19 02:59:22;;;;;;;1.65;1.33;;;18.70;53.70;;;;;;6300990;28;20046;-74
2023/03/19 03:02:23;;;;;;;2.17;1.50;;;18.70;53.70;;;;;;6283857;28;20036;-74
2023/03/19 03:05:25;;;;;;;1.50;1.10;;;18.70;53.70;;;;;;6301676;28;20367;-74
2023/03/19 03:08:27;;;;;;;2.17;1.38;;;18.70;53.70;;;;;;6283003;28;20537;-74
2023/03/19 03:11:28;;;;;;;2.20;1.33;;;18.70;53.70;;;;;;6301494;28;20028;-74
2023/03/19 03:14:30;;;;;;;1.45;1.20;;;18.70;53.70;;;;;;6282853;28;20024;-74
2023/03/19 03:17:31;;;;;;;2.13;1.50;;;18.70;53.70;;;;;;6282950;28;20021;-74
2023/03/19 03:20:32;;;;;;;2.78;1.35;;;18.70;53.70;;;;;;6282774;28;20027;-74
2023/03/19 03:23:33;;;;;;;1.95;1.52;;;18.70;54.40;;;;;;6301172;28;20059;-74
2023/03/19 03:26:34;;;;;;;2.00;1.20;;;18.70;53.70;;;;;;6301503;28;20025;-74
2023/03/19 03:29:35;;;;;;;1.35;1.20;;;18.70;53.70;;;;;;6301254;28;20029;-74
2023/03/19 03:32:37;;;;;;;1.45;0.98;;;18.70;53.70;;;;;;6301646;28;20020;-74
2023/03/19 03:35:37;;;;;;;4.30;1.40;;;18.70;53.70;;;;;;6301056;28;20028;-75
2023/03/19 03:38:39;;;;;;;1.58;1.15;;;18.70;53.70;;;;;;6301291;28;20024;-74
2023/03/19 03:41:41;;;;;;;1.95;1.45;;;18.70;53.70;;;;;;6284278;28;20063;-74
2023/03/19 03:44:42;;;;;;;1.73;1.20;;;18.70;53.70;;;;;;6300734;28;20036;-74
2023/03/19 03:47:43;;;;;;;1.30;1.20;;;18.70;53.70;;;;;;6283557;28;20074;-74
2023/03/19 03:50:44;;;;;;;1.60;1.30;;;18.70;53.70;;;;;;6300942;28;20039;-74
2023/03/19 03:53:45;;;;;;;2.00;1.40;;;18.70;53.70;;;;;;6283116;28;20025;-75
2023/03/19 03:56:46;;;;;;;1.92;1.35;;;18.70;53.70;;;;;;6282903;28;20474;-74
2023/03/19 03:59:46;;;;;;;1.38;1.27;;;18.70;53.70;;;;;;6301109;28;20138;-74
2023/03/19 04:02:47;;;;;;;1.30;1.20;;;18.70;53.70;;;;;;6283761;28;20021;-74
2023/03/19 04:05:50;;;;;;;2.17;1.52;;;18.70;53.70;;;;;;6283316;28;20382;-74
2023/03/19 04:08:51;;;;;;;2.20;1.30;;;18.70;53.70;;;;;;6299101;28;20043;-73
2023/03/19 04:11:51;;;;;;;1.65;1.42;;;18.70;53.70;;;;;;6296824;28;20499;-74
2023/03/19 04:14:52;;;;;;;2.00;1.45;;;18.70;53.80;;;;;;6279006;28;20024;-74
2023/03/19 04:17:53;;;;;;;2.53;1.58;;;18.70;53.70;;;;;;6296726;28;20464;-74
2023/03/19 04:20:53;;;;;;;2.05;1.40;;;18.70;53.70;;;;;;6296666;28;20598;-74
2023/03/19 04:23:54;;;;;;;1.85;1.25;;;18.70;53.70;;;;;;6297152;28;20382;-74
2023/03/19 04:26:55;;;;;;;3.05;1.58;;;18.70;53.70;;;;;;6278783;28;20085;-74
2023/03/19 04:29:56;;;;;;;2.28;1.48;;;18.70;53.70;;;;;;6278933;28;20584;-75
2023/03/19 04:32:56;;;;;;;1.88;1.33;;;18.70;53.70;;;;;;6278501;28;20028;-74
2023/03/19 04:35:58;;;;;;;1.88;1.20;;;18.70;53.70;;;;;;6278351;28;20554;-75
2023/03/19 04:38:58;;;;;;;2.00;1.50;;;18.70;53.70;;;;;;6278344;28;20052;-74
2023/03/19 04:41:59;;;;;;;1.90;1.35;;;18.70;53.70;;;;;;6278438;28;20017;-74
2023/03/19 04:45:00;;;;;;;1.55;1.10;;;18.70;53.70;;;;;;6277816;28;20044;-74
2023/03/19 04:48:01;;;;;;;2.22;1.45;;;18.70;53.70;;;;;;6296527;28;20059;-75
2023/03/19 04:51:02;;;;;;;1.58;1.20;;;18.70;53.70;;;;;;6295692;28;20108;-73
2023/03/19 04:54:04;;;;;;;1.40;1.30;;;18.70;53.70;;;;;;6296381;28;20052;-74
2023/03/19 04:57:05;;;;;;;1.73;1.35;;;18.70;53.70;;;;;;6277949;28;20074;-74
2023/03/19 05:00:37;;;;;;;1.80;1.40;;;18.70;53.70;;;;;;6296012;28;20024;-74
2023/03/19 05:03:38;;;;;;;2.65;1.38;;;18.70;53.70;;;;;;6295917;28;20039;-74
2023/03/19 05:06:39;;;;;;;2.08;1.70;;;18.70;53.70;;;;;;6278036;28;20115;-74
2023/03/19 05:09:41;;;;;;;2.45;1.48;;;18.70;53.70;;;;;;6295901;28;20036;-74
2023/03/19 05:12:42;;;;;;;2.65;1.70;;;18.70;53.70;;;;;;6277419;28;20036;-74
2023/03/19 05:15:43;;;;;;;1.88;1.40;;;18.70;53.70;;;;;;6277284;28;20021;-74
2023/03/19 05:18:44;;;;;;;2.28;1.50;;;18.70;53.70;;;;;;6277522;28;20020;-74
2023/03/19 05:21:45;;;;;;;1.70;1.23;;;18.70;53.70;;;;;;6277422;28;20068;-74
2023/03/19 05:24:46;;;;;;;2.30;1.65;;;18.70;53.70;;;;;;6295588;28;20032;-74
2023/03/19 05:27:46;;;;;;;1.95;1.58;;;18.70;53.70;;;;;;6295300;28;20085;-74
2023/03/19 05:30:48;;;;;;;1.70;1.42;;;18.70;53.70;;;;;;6277007;28;20032;-74
2023/03/19 05:33:48;;;;;;;1.45;1.25;;;18.70;53.70;;;;;;6294984;28;20052;-74
2023/03/19 05:36:49;;;;;;;2.58;1.52;;;18.70;53.70;;;;;;6277215;28;20025;-74
2023/03/19 05:39:50;;;;;;;2.60;1.42;;;18.70;53.70;;;;;;6294657;28;20043;-74
2023/03/19 05:42:51;;;;;;;1.50;1.17;;;18.70;53.80;;;;;;6295201;28;20043;-74
2023/03/19 05:45:51;;;;;;;2.72;1.70;;;18.70;53.70;;;;;;6276215;28;20053;-75
2023/03/19 05:48:52;;;;;;;2.10;1.30;;;18.70;53.70;;;;;;6294970;28;20553;-74
2023/03/19 05:51:53;;;;;;;1.50;1.20;;;18.70;53.70;;;;;;6294444;28;20040;-74
2023/03/19 05:54:54;;;;;;;2.03;1.48;;;18.70;53.70;;;;;;6276802;28;20033;-74
2023/03/19 05:57:56;;;;;;;3.85;1.38;;;18.70;53.70;;;;;;6276525;28;20093;-74
2023/03/19 06:00:57;;;;;;;2.13;1.70;;;18.70;53.70;;;;;;6292624;28;20037;-73
2023/03/19 06:03:58;;;;;;;1.85;1.45;;;18.70;53.70;;;;;;6276284;28;20416;-74
2023/03/19 06:06:58;;;;;;;2.38;1.60;;;18.70;53.70;;;;;;6276824;28;20052;-74
2023/03/19 06:09:59;;;;;;;1.50;1.13;;;18.70;53.70;;;;;;6276365;28;20555;-74
2023/03/19 06:13:00;;;;;;;1.80;1.40;;;18.70;53.70;;;;;;6276249;28;20115;-74
2023/03/19 06:16:01;;;;;;;1.42;1.27;;;18.70;53.70;;;;;;6294413;28;20692;-74
2023/03/19 06:19:01;;;;;;;2.50;1.35;;;18.70;53.80;;;;;;6294131;28;20020;-74
2023/03/19 06:22:02;;;;;;;1.85;1.42;;;18.70;53.70;;;;;;6276184;28;20025;-74
2023/03/19 06:25:03;;;;;;;3.47;1.60;;;18.70;53.70;;;;;;6293962;28;20028;-74
2023/03/19 06:28:05;;;;;;;2.28;1.55;;;18.70;53.70;;;;;;6276186;28;20024;-74
2023/03/19 06:31:05;;;;;;;2.00;1.33;;;18.70;53.70;;;;;;6293734;28;20024;-74
2023/03/19 06:34:07;;;;;;;2.22;1.50;;;18.70;53.80;;;;;;6275287;28;20024;-74
2023/03/19 06:37:07;;;;;;;1.77;1.40;;;18.70;53.80;;;;;;6294009;28;20063;-74
2023/03/19 06:40:09;;;;;;;1.88;1.38;;;18.70;53.80;;;;;;6293640;28;20021;-74
2023/03/19 06:43:10;;;;;;;2.30;1.60;;;18.70;53.80;;;;;;6275356;28;20112;-75
2023/03/19 06:46:11;;;;;;;1.60;1.23;;;18.70;53.80;;;;;;6293600;28;20078;-74
2023/03/19 06:49:12;;;;;;;2.20;1.50;;;18.70;53.80;;;;;;6293949;28;20786;-76
2023/03/19 06:52:13;;;;;;;1.58;1.40;;;18.70;53.80;;;;;;6275681;28;20021;-76
2023/03/19 06:55:14;;;;;;;2.08;1.30;;;18.70;53.80;;;;;;6275850;28;20020;-73
2023/03/19 06:58:15;;;;;;;2.22;1.52;;;18.70;53.80;;;;;;6293469;28;20017;-74
2023/03/19 07:01:16;;;;;;;2.15;1.48;;;18.70;53.80;;;;;;6293531;28;20064;-74
2023/03/19 07:04:16;;;;;;;1.92;1.45;;;18.80;53.90;;;;;;6293565;28;20028;-74
2023/03/19 07:07:17;;;;;;;2.60;1.48;;;18.70;53.90;;;;;;6275758;28;20028;-73
2023/03/19 07:10:19;;;;;;;2.97;1.77;;;18.70;53.80;;;;;;6275155;28;20485;-73
2023/03/19 07:13:20;;;;;;;2.17;1.27;;;18.70;53.80;;;;;;6293531;28;20478;-73
2023/03/19 07:16:21;;;;;;;2.45;1.52;;;18.70;53.80;;;;;;6293255;28;20032;-74
2023/03/19 07:19:22;;;;;;;1.80;1.33;;;18.70;53.80;;;;;;6293227;28;20757;-74
2023/03/19 07:22:22;;;;;;;2.15;1.40;;;18.70;53.80;;;;;;6293443;28;20024;-74
2023/03/19 07:25:23;;;;;;;1.77;1.30;;;18.70;53.80;;;;;;6293254;28;20059;-73
2023/03/19 07:28:24;;;;;;;1.83;1.30;;;18.70;53.80;;;;;;6274864;28;20389;-74
2023/03/19 07:31:25;;;;;;;2.20;1.55;;;18.70;53.80;;;;;;6292141;28;20745;-74
2023/03/19 07:34:26;;;;;;;2.05;1.65;;;18.70;53.80;;;;;;6274784;28;20021;-73
2023/03/19 07:37:26;;;;;;;3.05;1.38;;;18.70;53.80;;;;;;6293036;28;20019;-74
2023/03/19 07:40:27;;;;;;;2.50;1.42;;;18.70;53.80;;;;;;6292267;28;20021;-74
2023/03/19 07:43:28;;;;;;;1.50;1.25;;;18.70;53.80;;;;;;6275113;28;20052;-74
2023/03/19 07:46:29;;;;;;;2.60;1.50;;;18.70;53.80;;;;;;6297534;28;20060;-74
2023/03/19 07:49:30;;;;;;;2.33;1.58;;;18.70;53.80;;;;;;6282543;28;20115;-74
2023/03/19 07:52:30;;;;;;;2.13;1.42;;;18.70;53.80;;;;;;6254795;28;20102;-73
2023/03/19 07:55:31;;;;;;;2.67;1.63;;;18.70;53.80;;;;;;6254489;28;20064;-73
2023/03/19 07:58:32;;;;;;;1.58;1.13;;;18.70;53.80;;;;;;6272837;28;20025;-74
2023/03/19 08:01:34;;;;;;;2.20;1.75;;;18.70;53.80;;;;;;6296401;28;20481;-74
2023/03/19 08:04:35;;;;;;;1.52;1.20;;;18.70;53.80;;;;;;6278565;28;20028;-74
2023/03/19 08:07:36;;;;;;;1.92;1.63;;;18.70;54.50;;;;;;6285014;28;20082;-74
2023/03/19 08:10:37;;;;;;;2.15;1.40;;;18.70;53.80;;;;;;6272499;28;20025;-73
2023/03/19 08:13:38;;;;;;;3.20;1.38;;;18.70;53.80;;;;;;6276871;28;20024;-74
2023/03/19 08:16:38;;;;;;;2.35;1.50;;;18.70;53.80;;;;;;6277451;28;20025;-74
2023/03/19 08:19:40;;;;;;;2.42;1.30;;;18.70;53.80;;;;;;6266558;28;20681;-74
2023/03/19 08:22:41;;;;;;;1.70;1.40;;;18.70;53.80;;;;;;6278891;28;20025;-74
2023/03/19 08:25:42;;;;;;;1.33;1.10;;;18.70;54.60;;;;;;6278740;28;20055;-74
2023/03/19 08:28:43;;;;;;;1.88;1.15;;;18.70;53.80;;;;;;6279026;28;20028;-74
2023/03/19 08:31:43;;;;;;;2.20;1.60;;;18.70;53.90;;;;;;6278314;28;20029;-74
2023/03/19 08:34:44;;;;;;;2.60;1.45;;;18.70;53.80;;;;;;6286865;28;20478;-74
2023/03/19 08:37:45;;;;;;;1.80;1.50;;;18.70;53.80;;;;;;6271452;28;20624;-74
2023/03/19 08:40:46;;;;;;;3.00;1.42;;;18.70;53.80;;;;;;6271425;28;20048;-74
2023/03/19 08:43:47;;;;;;;1.83;1.45;;;18.70;53.90;;;;;;6277578;28;20045;-73
2023/03/19 08:46:48;;;;;;;2.30;1.30;;;18.70;53.90;;;;;;6296154;28;20060;-73
2023/03/19 08:49:53;;;;;;;1.48;1.25;;;18.70;53.90;;;;;;6278432;28;20021;-73
2023/03/19 08:52:54;;;;;;;1.50;1.37;;;18.70;53.90;;;;;;6278210;28;20097;-73
2023/03/19 08:55:58;;;;;;;2.00;1.40;;;18.70;53.90;;;;;;6277483;28;20024;-74
2023/03/19 08:58:58;;;;;;;2.50;1.52;;;18.70;53.90;;;;;;6278188;28;20024;-73
2023/03/19 09:01:59;;;;;;;2.17;1.58;;;18.70;53.90;;;;;;6296348;28;20044;-73
2023/03/19 09:05:00;;;;;;;2.22;1.60;;;18.70;53.90;;;;;;6295818;28;20025;-72
2023/03/19 09:08:01;;;;;;;1.45;1.20;;;18.70;53.90;;;;;;6268715;28;20024;-74
2023/03/19 09:11:02;;;;;;;1.95;1.40;;;18.70;53.90;;;;;;6293106;28;20032;-74
2023/03/19 09:14:03;;;;;;;1.83;1.27;;;18.70;53.90;;;;;;6310878;28;20447;-74
2023/03/19 09:17:04;;;;;;;1.83;1.48;;;18.70;53.80;;;;;;6300716;28;20024;-74
2023/03/19 09:20:06;;;;;;;1.95;1.40;;;18.70;53.80;;;;;;6300852;28;20188;-74
2023/03/19 09:23:07;;;;;;;1.73;1.40;;;18.70;53.90;;;;;;6300312;28;20199;-73
2023/03/19 09:26:07;;;;;;;1.73;1.40;;;18.70;53.80;;;;;;6273722;28;20021;-74
2023/03/19 09:29:08;;;;;;;1.52;1.35;;;18.80;53.90;;;;;;6300936;28;20105;-74
2023/03/19 09:32:09;;;;;;;2.35;1.42;;;18.70;53.80;;;;;;6301154;28;20027;-75
2023/03/19 09:35:10;;;;;;;2.35;1.40;;;18.70;53.80;;;;;;6298588;28;20640;-75
2023/03/19 09:38:11;;;;;;;1.83;1.17;;;18.70;53.80;;;;;;6300946;28;20396;-73
2023/03/19 09:41:30;;;;;;;2.65;1.75;;;18.70;53.80;;;;;;6299188;28;20028;-74
2023/03/19 09:44:37;;;;;;;2.45;1.63;;;18.80;53.80;;;;;;6284213;28;20047;-74
2023/03/19 09:47:42;;;;;;;4.35;1.30;;;18.80;53.80;;;;;;6324346;28;20023;-72
2023/03/19 09:50:43;;;;;;;;;;;18.80;53.90;;;;;;6305954;28;20428;-72
2023/03/19 09:53:51;;;;;;;2.00;1.30;;;18.80;53.80;;;;;;6293770;28;19913;-73
2023/03/19 09:56:53;;;;;;;1.90;1.20;;;18.80;53.90;;;;;;6267183;28;20028;-73
2023/03/19 09:59:54;;;;;;;2.83;1.60;;;18.80;53.90;;;;;;6282338;28;20362;-72
2023/03/19 10:03:11;;;;;;;2.42;1.40;;;18.80;53.90;;;;;;6279110;28;20039;-72
2023/03/19 10:06:21;;;;;;;2.13;1.30;;;18.80;53.90;;;;;;6283326;28;20016;-73
2023/03/19 10:09:27;;;;;;;2.22;1.50;;;18.80;53.90;;;;;;6292305;28;20764;-73
2023/03/19 10:12:50;;;;;;;2.17;1.65;;;18.80;53.90;;;;;;6273492;28;20028;-72
2023/03/19 10:15:52;;;;;;;1.50;1.30;;;18.80;53.90;;;;;;6289337;28;20444;-72
2023/03/19 10:19:01;;;;;;;1.65;1.38;;;18.80;53.90;;;;;;6261521;28;20044;-72
2023/03/19 10:22:07;;;;;;;1.90;1.20;;;18.80;53.90;;;;;;6292369;28;20417;-73
2023/03/19 10:25:18;;;;;;;1.90;1.50;;;18.80;53.90;;;;;;6275855;28;20113;-73
2023/03/19 10:28:20;;;;;;;2.42;1.60;;;18.80;53.90;;;;;;6317538;28;20024;-72
2023/03/19 10:31:46;;;;;;;2.30;1.33;;;18.80;53.90;;;;;;6308708;28;20116;-72
2023/03/19 10:34:49;;;;;;;2.47;1.50;;;18.80;53.90;;;;;;6292718;28;20055;-73
2023/03/19 10:37:51;;;;;;;2.67;1.33;;;18.80;53.80;;;;;;6296670;28;20020;-74
2023/03/19 10:41:17;;;;;;;2.17;1.30;;;18.90;53.90;;;;;;6317033;28;20024;-72
2023/03/19 10:44:29;;;;;;;2.92;1.63;;;18.80;53.90;;;;;;6316876;28;20089;-73
2023/03/19 10:47:38;;;;;;;1.95;1.30;;;18.80;53.80;;;;;;6285931;28;20044;-74
2023/03/19 10:50:52;;;;;;;1.88;1.50;;;18.80;53.80;;;;;;6266571;28;20029;-72
2023/03/19 10:53:55;;;;;;;1.83;1.40;;;18.80;53.90;;;;;;6291073;28;20033;-72
2023/03/19 10:56:58;;;;;;;2.10;1.63;;;18.80;53.90;;;;;;6277383;28;20047;-72
2023/03/19 11:00:05;;;;;;;2.15;1.23;;;18.80;54.00;;;;;;6291191;28;20028;-73
2023/03/19 11:03:28;;;;;;;3.35;1.52;;;18.80;53.80;;;;;;6274103;28;20043;-73
2023/03/19 11:06:35;;;;;;;5.03;1.60;;;18.90;53.90;;;;;;6301311;28;20042;-72
2023/03/19 11:09:38;;;;;;;2.40;1.70;;;18.90;53.90;;;;;;6298520;28;20161;-73
2023/03/19 11:12:39;;;;;;;2.28;1.65;;;18.90;53.90;;;;;;6307575;28;20060;-72
2023/03/19 11:15:40;;;;;;;2.50;1.45;;;18.80;53.80;;;;;;6282846;28;20385;-72
2023/03/19 11:18:41;;;;;;;2.03;1.67;;;18.80;53.90;;;;;;6280378;28;20025;-72
2023/03/19 11:21:45;;;;;;;2.78;1.63;;;18.80;53.90;;;;;;6300760;28;20031;-72
2023/03/19 11:24:51;;;;;;;2.00;1.65;;;18.80;53.80;;;;;;6278862;28;20063;-72
2023/03/19 11:28:05;;;;;;;2.45;1.60;;;18.80;53.90;;;;;;6313192;28;20131;-73
2023/03/19 11:31:38;;;;;;;2.30;1.60;;;18.90;53.80;;;;;;6320811;28;20028;-71
2023/03/19 11:35:12;;;;;;;2.53;1.70;;;18.90;53.90;;;;;;6233740;28;20494;-69
2023/03/19 11:38:52;;;;;;;3.45;2.08;;;18.80;53.80;;;;;;6291647;28;20086;-71
2023/03/19 11:42:24;;;;;;;2.75;1.83;;;18.80;53.80;;;;;;6256424;28;20036;-71
2023/03/19 11:45:28;;;;;;;2.78;1.80;;;18.80;53.90;;;;;;6293707;28;20040;-70
2023/03/19 11:48:54;;;;;;;2.92;1.70;;;18.80;53.90;;;;;;6283752;28;20036;-71
2023/03/19 11:52:37;;;;;;;2.80;2.00;;;18.80;53.80;;;;;;6268346;28;20120;-70
2023/03/19 11:55:41;;;;;;;3.13;1.77;;;18.80;53.90;;;;;;6296082;28;20121;-71
2023/03/19 11:59:12;;;;;;;2.08;1.58;;;18.90;54.00;;;;;;6296521;28;20589;-71
2023/03/19 12:02:45;;;;;;;4.35;1.88;;;18.80;53.90;;;;;;6293111;28;20040;-71
2023/03/19 12:05:59;;;;;;;3.33;1.75;;;18.90;53.90;;;;;;6278020;28;20028;-71
2023/03/19 12:09:12;;;;;;;2.58;1.77;;;18.90;53.90;;;;;;6271672;28;20024;-71
2023/03/19 12:12:41;;;;;;;3.00;1.90;;;18.80;53.90;;;;;;6269289;28;20111;-71
2023/03/19 12:15:54;;;;;;;3.10;2.20;;;18.90;53.90;;;;;;6275382;28;20528;-71
2023/03/19 12:19:18;;;;;;;3.15;1.85;;;18.90;53.90;;;;;;6290101;28;20024;-71
2023/03/19 12:22:35;;;;;;;2.72;2.00;;;18.90;54.60;;;;;;6297013;28;20024;-71
2023/03/19 12:26:13;;;;;;;2.22;1.60;;;18.90;53.90;;;;;;6268713;28;20620;-71
2023/03/19 12:29:26;;;;;;;2.72;1.75;;;18.90;53.90;;;;;;6268745;28;20532;-71
2023/03/19 12:32:57;;;;;;;3.80;2.08;;;18.90;54.00;;;;;;6293669;28;20029;-71
2023/03/19 12:35:58;;;;;;;5.03;1.88;;;18.90;54.00;;;;;;6268246;28;20028;-71
2023/03/19 12:39:13;;;;;;;2.78;1.70;;;18.90;54.00;;;;;;6294337;28;20588;-71
2023/03/19 12:42:17;;;;;;;3.28;1.95;;;18.90;54.00;;;;;;6287179;28;20036;-71
2023/03/19 12:45:21;;;;;;;2.43;1.67;;;18.90;54.00;;;;;;6287850;28;20562;-71
2023/03/19 12:48:40;;;;;;;3.50;1.98;;;18.90;54.00;;;;;;6311767;28;20336;-71
2023/03/19 12:51:45;;;;;;;2.90;1.90;;;18.90;54.00;;;;;;6294760;28;20028;-71
2023/03/19 12:55:03;;;;;;;2.67;1.85;;;18.90;54.00;;;;;;6308820;28;20020;-71
2023/03/19 12:58:33;;;;;;;2.75;1.90;;;18.90;54.00;;;;;;6299032;28;20032;-71
2023/03/19 13:01:41;;;;;;;4.10;1.92;;;18.90;54.00;;;;;;6292256;28;20029;-71
2023/03/19 13:04:54;;;;;;;2.50;1.90;;;18.80;54.00;;;;;;6283964;28;20257;-71
2023/03/19 13:08:29;;;;;;;3.38;1.92;;;18.80;53.90;;;;;;6280616;28;20024;-71
2023/03/19 13:11:45;;;;;;;3.30;2.10;;;18.90;54.00;;;;;;6276373;28;20040;-71
2023/03/19 13:14:46;;;;;;;;;;;18.80;54.00;;;;;;6287414;28;20141;-71
2023/03/19 13:18:05;;;;;;;3.20;1.90;;;18.80;54.00;;;;;;6306725;28;19912;-71
2023/03/19 13:21:15;;;;;;;3.15;1.73;;;18.80;54.10;;;;;;6262747;28;20173;-71
2023/03/19 13:24:33;;;;;;;3.38;1.98;;;18.90;54.00;;;;;;6276217;28;20035;-70
2023/03/19 13:27:35;;;;;;;2.72;2.03;;;18.90;54.10;;;;;;6266848;28;20020;-70
2023/03/19 13:30:41;;;;;;;3.03;2.03;;;18.80;53.90;;;;;;6283430;28;20485;-71
2023/03/19 13:34:01;;;;;;;2.15;1.92;;;18.90;54.10;;;;;;6289956;28;20035;-71
2023/03/19 13:37:11;;;;;;;2.60;2.00;;;18.90;53.90;;;;;;6266304;28;20072;-71
2023/03/19 13:40:40;;;;;;;2.70;2.00;;;18.90;53.90;;;;;;6267062;28;20031;-71
2023/03/19 13:43:50;;;;;;;3.03;1.80;;;18.80;54.00;;;;;;6297188;28;20028;-72
2023/03/19 13:46:51;;;;;;;4.40;2.08;;;18.90;54.00;;;;;;6292942;28;20028;-71
2023/03/19 13:50:18;;;;;;;2.13;1.60;;;18.90;54.00;;;;;;6270390;28;20570;-71
2023/03/19 13:53:37;;;;;;;2.72;2.00;;;18.90;53.90;;;;;;6284695;28;20043;-71
2023/03/19 13:57:00;;;;;;;3.13;1.98;;;18.90;53.90;;;;;;6293542;28;20070;-71
2023/03/19 14:00:49;;;;;;;2.88;1.95;;;18.90;53.90;;;;;;6294556;28;20016;-71
2023/03/19 14:03:58;;;;;;;2.83;1.60;;;18.90;54.00;;;;;;6262432;28;20044;-71
2023/03/19 14:07:39;;;;;;;3.15;1.95;;;18.90;54.00;;;;;;6250981;28;20067;-71
2023/03/19 14:10:49;;;;;;;2.72;1.90;;;18.80;54.00;;;;;;6260627;28;20073;-71
2023/03/19 14:13:51;;;;;;;2.70;1.85;;;18.80;54.00;;;;;;6298306;28;20474;-71
2023/03/19 14:16:52;;;;;;;3.20;2.13;;;18.90;54.10;;;;;;6307264;28;20516;-71
2023/03/19 14:19:53;;;;;;;4.28;1.80;;;18.90;54.00;;;;;;6290050;28;20017;-71
2023/03/19 14:23:15;;;;;;;3.72;2.25;;;18.90;54.00;;;;;;6292650;28;20017;-71
2023/03/19 14:26:23;;;;;;;2.30;1.73;;;18.90;54.00;;;;;;6292144;28;20032;-71
2023/03/19 14:29:25;;;;;;;3.10;2.05;;;18.90;54.00;;;;;;6293409;28;20491;-72
2023/03/19 14:32:33;;;;;;;3.13;1.80;;;18.90;54.20;;;;;;6297691;28;20020;-72
2023/03/19 14:35:42;;;;;;;2.05;1.70;;;18.90;53.90;;;;;;6308431;28;20024;-71
2023/03/19 14:38:50;;;;;;;3.20;1.90;;;18.90;53.90;;;;;;6299413;28;20024;-71
2023/03/19 14:42:12;;;;;;;2.95;1.88;;;18.90;53.90;;;;;;6293158;28;20093;-71
2023/03/19 14:45:32;;;;;;;3.33;1.90;;;18.90;54.50;;;;;;6313884;28;20033;-71
2023/03/19 14:48:33;;;;;;;2.90;1.77;;;18.90;53.90;;;;;;6295749;28;20026;-71
2023/03/19 14:51:49;;;;;;;2.95;2.15;;;18.90;53.90;;;;;;6293660;28;20024;-71
2023/03/19 14:55:00;;;;;;;2.53;1.60;;;18.90;53.90;;;;;;6308523;28;20024;-72
2023/03/19 14:58:01;;;;;;;2.92;1.83;;;18.90;53.80;;;;;;6249576;28;20021;-71
2023/03/19 15:01:06;;;;;;;3.60;2.00;;;18.90;53.80;;;;;;6317045;28;20030;-71
2023/03/19 15:04:14;;;;;;;2.90;1.97;;;18.90;53.90;;;;;;6276147;28;20078;-71
2023/03/19 15:07:19;;;;;;;3.55;2.30;;;18.90;54.00;;;;;;6302089;28;20669;-71
2023/03/19 15:10:26;;;;;;;3.50;2.28;;;18.90;54.00;;;;;;6294047;28;20040;-71
2023/03/19 15:13:33;;;;;;;3.05;1.90;;;18.90;54.10;;;;;;6300235;28;20055;-71
2023/03/19 15:16:51;;;;;;;3.08;1.98;;;18.90;54.10;;;;;;6298477;28;20070;-71
2023/03/19 15:19:53;;;;;;;4.65;2.10;;;18.90;54.00;;;;;;6315592;28;20115;-71
2023/03/19 15:22:56;;;;;;;3.58;2.20;;;18.90;54.00;;;;;;6292922;28;20437;-71
2023/03/19 15:26:02;;;;;;;2.92;1.95;;;18.90;54.00;;;;;;6267486;28;20021;-71
2023/03/19 15:29:03;;;;;;;2.88;1.90;;;18.90;54.00;;;;;;6290886;28;20052;-71
2023/03/19 15:32:04;;;;;;;3.10;1.90;;;18.90;54.00;;;;;;6281967;28;20091;-71
2023/03/19 15:35:06;;;;;;;2.95;2.03;;;18.90;54.10;;;;;;6261348;28;20128;-71
2023/03/19 15:38:10;;;;;;;3.47;2.35;;;18.90;54.10;;;;;;6297134;28;20054;-71
2023/03/19 15:41:12;;;;;;;3.93;2.30;;;18.90;54.10;;;;;;6291181;28;20090;-71
2023/03/19 15:44:44;;;;;;;3.10;1.80;;;18.90;54.00;;;;;;6273577;28;20170;-72
2023/03/19 15:47:53;;;;;;;3.17;2.08;;;18.90;54.00;;;;;;6274956;28;20020;-71
2023/03/19 15:51:00;;;;;;;2.88;1.88;;;18.90;54.00;;;;;;6271048;28;20024;-71
2023/03/19 15:54:03;;;;;;;3.25;2.05;;;18.90;54.00;;;;;;6267127;28;20067;-71
2023/03/19 15:57:06;;;;;;;3.78;2.17;;;18.90;54.10;;;;;;6273563;28;20031;-72
2023/03/19 16:00:08;;;;;;;2.08;1.75;;;18.90;54.10;;;;;;6297491;28;20020;-71
2023/03/19 16:03:18;;;;;;;3.45;2.20;;;18.90;54.10;;;;;;6296265;28;20025;-70
2023/03/19 16:06:22;;;;;;;3.67;1.98;;;18.90;54.10;;;;;;6258768;28;20031;-71